Time;durP1;ratioP1;P1;durP2;ratioP2;P2;SDS_P1;SDS_P2;PMS_P1;PMS_P2;Temp;Humidity;BMP_temperature;BMP_pressure;BME280_temperature;BME280_humidity;BME280_pressure;Samples;Min_cycle;Max_cycle;Signal;HPM_P1;HPM_P2
2022/05/13 00:01:29;;;;;;;3.55;3.25;;;25.80;44.40;;;;;;5027119;28;20053;-65
2022/05/13 00:03:57;;;;;;;5.28;2.78;;;25.90;44.40;;;;;;5026816;28;20084;-66
2022/05/13 00:06:25;;;;;;;3.40;3.10;;;25.80;44.40;;;;;;5027435;28;20080;-65
2022/05/13 00:08:52;;;;;;;2.83;2.53;;;25.80;44.40;;;;;;5024027;28;20162;-66
2022/05/13 00:11:20;;;;;;;2.80;2.60;;;25.90;44.50;;;;;;5026197;28;20038;-65
2022/05/13 00:13:47;;;;;;;3.53;2.70;;;25.80;44.40;;;;;;5026699;28;20057;-65
2022/05/13 00:16:14;;;;;;;4.85;3.15;;;25.80;44.40;;;;;;5025203;28;20041;-65
2022/05/13 00:18:42;;;;;;;3.60;3.10;;;25.90;44.50;;;;;;5022564;28;20045;-65
2022/05/13 00:21:10;;;;;;;2.80;2.60;;;25.90;44.50;;;;;;5026339;28;20401;-66
2022/05/13 00:23:37;;;;;;;3.83;3.40;;;25.80;44.40;;;;;;5026641;28;20053;-65
2022/05/13 00:26:04;;;;;;;2.72;2.50;;;25.90;44.50;;;;;;5025975;28;20529;-65
2022/05/13 00:28:31;;;;;;;5.07;2.97;;;25.80;44.40;;;;;;5025969;28;20045;-65
2022/05/13 00:31:01;;;;;;;3.55;3.25;;;25.90;44.50;;;;;;5026401;28;20041;-66
2022/05/13 00:33:28;;;;;;;3.60;3.17;;;25.80;44.40;;;;;;5026098;28;20046;-65
2022/05/13 00:35:56;;;;;;;2.88;2.67;;;25.80;44.40;;;;;;5025375;28;20049;-66
2022/05/13 00:38:23;;;;;;;3.75;2.90;;;25.80;44.40;;;;;;5025990;28;20049;-65
2022/05/13 00:40:50;;;;;;;3.05;2.75;;;25.80;44.40;;;;;;5026431;28;20050;-66
2022/05/13 00:43:44;;;;;;;3.03;2.80;;;25.80;44.40;;;;;;5025912;28;20555;-65
2022/05/13 00:46:12;;;;;;;3.13;2.78;;;25.80;44.50;;;;;;5024447;28;20103;-66
2022/05/13 00:48:39;;;;;;;3.30;2.70;;;25.80;44.40;;;;;;5022324;28;20057;-66
2022/05/13 00:51:09;;;;;;;4.07;3.28;;;25.80;44.50;;;;;;5024976;28;20069;-65
2022/05/13 00:53:37;;;;;;;5.07;2.90;;;25.80;44.50;;;;;;5026115;28;20115;-65
2022/05/13 00:56:05;;;;;;;3.30;2.95;;;25.80;44.50;;;;;;5026042;28;20096;-65
2022/05/13 00:58:37;;;;;;;4.03;3.38;;;25.70;44.40;;;;;;5025454;28;20132;-65
2022/05/13 01:01:05;;;;;;;3.30;2.97;;;25.80;44.50;;;;;;5025985;28;20053;-66
2022/05/13 01:03:34;;;;;;;3.25;2.95;;;25.70;44.50;;;;;;5025208;28;20497;-65
2022/05/13 01:06:06;;;;;;;3.60;2.87;;;25.70;44.50;;;;;;5026038;28;20060;-66
2022/05/13 01:08:36;;;;;;;3.53;3.05;;;25.70;44.50;;;;;;5025216;28;20546;-65
2022/05/13 01:11:09;;;;;;;3.13;2.83;;;25.70;44.50;;;;;;5025920;28;20050;-66
2022/05/13 01:13:45;;;;;;;4.57;3.35;;;25.70;44.50;;;;;;5026241;28;20049;-65
2022/05/13 01:16:13;;;;;;;3.20;3.00;;;25.70;44.60;;;;;;5025709;28;20038;-65
2022/05/13 01:18:42;;;;;;;3.30;3.10;;;25.70;44.50;;;;;;5026118;28;20057;-65
2022/05/13 01:21:15;;;;;;;3.40;2.97;;;25.70;44.50;;;;;;5019966;28;20567;-65
2022/05/13 01:23:45;;;;;;;3.00;2.80;;;25.70;44.50;;;;;;5025533;28;20502;-66
2022/05/13 01:26:16;;;;;;;2.97;2.78;;;25.70;44.60;;;;;;5025920;28;20429;-66
2022/05/13 01:28:50;;;;;;;4.28;3.15;;;25.70;44.60;;;;;;5025347;28;20104;-66
2022/05/13 01:31:24;;;;;;;3.35;3.03;;;25.70;44.60;;;;;;5023896;28;20042;-65
2022/05/13 01:33:53;;;;;;;2.95;2.75;;;25.70;44.60;;;;;;5024916;28;20104;-65
2022/05/13 01:36:21;;;;;;;2.88;2.60;;;25.70;44.60;;;;;;5024979;28;20091;-66
2022/05/13 01:38:49;;;;;;;3.25;2.88;;;25.70;44.60;;;;;;5024972;28;20425;-66
2022/05/13 01:41:17;;;;;;;2.90;2.70;;;25.70;44.60;;;;;;5025287;28;20045;-66
2022/05/13 01:43:46;;;;;;;3.22;2.92;;;25.70;44.60;;;;;;5025150;28;20053;-65
2022/05/13 01:46:14;;;;;;;3.20;3.00;;;25.70;44.60;;;;;;5024660;28;20529;-65
2022/05/13 01:48:42;;;;;;;3.28;2.35;;;25.70;44.60;;;;;;5025344;28;20041;-66
2022/05/13 01:51:09;;;;;;;3.15;2.88;;;25.70;44.60;;;;;;5021890;28;20072;-66
2022/05/13 01:53:37;;;;;;;2.85;2.65;;;25.70;44.60;;;;;;5024046;28;20046;-65
2022/05/13 01:56:05;;;;;;;4.85;3.13;;;25.70;44.60;;;;;;5024786;28;20053;-65
2022/05/13 01:58:34;;;;;;;4.32;2.88;;;25.70;44.60;;;;;;5024851;28;20128;-65
2022/05/13 02:01:04;;;;;;;2.58;2.45;;;25.70;44.60;;;;;;5025300;28;20537;-65
2022/05/13 02:03:44;;;;;;;2.83;2.63;;;25.70;44.60;;;;;;5024947;28;20071;-65
2022/05/13 02:06:15;;;;;;;3.10;2.90;;;25.70;44.60;;;;;;5025103;28;20049;-66
2022/05/13 02:08:42;;;;;;;3.42;2.72;;;25.70;44.60;;;;;;5023331;28;20041;-65
2022/05/13 02:11:11;;;;;;;2.92;2.72;;;25.70;44.60;;;;;;5024301;28;20038;-66
2022/05/13 02:13:39;;;;;;;3.08;2.78;;;25.60;44.60;;;;;;5025102;28;20058;-65
2022/05/13 02:16:06;;;;;;;3.33;3.03;;;25.70;44.60;;;;;;5024933;28;20041;-65
2022/05/13 02:18:34;;;;;;;3.15;2.95;;;25.60;44.50;;;;;;5024785;28;20049;-65
2022/05/13 02:21:01;;;;;;;2.92;2.63;;;25.60;44.60;;;;;;5024187;28;20460;-65
2022/05/13 02:23:28;;;;;;;3.00;2.80;;;25.60;44.60;;;;;;5020097;28;20061;-65
2022/05/13 02:26:02;;;;;;;3.08;2.75;;;25.60;44.60;;;;;;5024664;28;20049;-65
2022/05/13 02:28:30;;;;;;;3.28;2.97;;;25.60;44.60;;;;;;5004729;28;20072;-65
2022/05/13 02:30:59;;;;;;;3.15;2.92;;;25.60;44.70;;;;;;5004111;28;20290;-65
2022/05/13 02:33:28;;;;;;;3.42;2.92;;;25.60;44.60;;;;;;5005006;28;20080;-65
2022/05/13 02:35:55;;;;;;;4.20;2.85;;;25.60;44.60;;;;;;5004694;28;20085;-65
2022/05/13 02:38:23;;;;;;;3.20;3.00;;;25.60;44.70;;;;;;5006930;28;20109;-65
2022/05/13 02:43:53;;;;;;;3.13;2.75;;;25.60;44.70;;;;;;5027061;28;20049;-66
2022/05/13 02:46:23;;;;;;;3.08;2.88;;;25.60;44.70;;;;;;5027642;28;20265;-66
2022/05/13 02:48:51;;;;;;;2.95;2.75;;;25.60;44.70;;;;;;5028526;28;20057;-65
2022/05/13 02:51:19;;;;;;;3.17;2.88;;;25.60;44.70;;;;;;5028284;28;20120;-66
2022/05/13 02:53:47;;;;;;;2.97;2.78;;;25.60;44.70;;;;;;5028408;28;20049;-65
2022/05/13 02:56:15;;;;;;;3.13;2.83;;;25.60;44.70;;;;;;5023348;28;20042;-66
2022/05/13 02:58:44;;;;;;;3.08;2.80;;;25.60;44.70;;;;;;5026026;28;20061;-66
2022/05/13 03:01:13;;;;;;;2.90;2.70;;;25.60;44.70;;;;;;5028344;28;20050;-66
2022/05/13 03:03:43;;;;;;;3.58;3.25;;;25.60;44.70;;;;;;5028404;28;20127;-66
2022/05/13 03:06:11;;;;;;;3.40;3.10;;;25.60;44.70;;;;;;5027294;28;20079;-66
2022/05/13 03:08:39;;;;;;;3.42;2.75;;;25.60;44.60;;;;;;5027766;28;20052;-66
2022/05/13 03:11:07;;;;;;;4.40;2.95;;;25.60;44.70;;;;;;5027609;28;20107;-66
2022/05/13 03:13:34;;;;;;;3.45;3.15;;;25.60;44.60;;;;;;5027563;28;20057;-66
2022/05/13 03:16:07;;;;;;;4.75;3.38;;;25.60;44.60;;;;;;5027780;28;20084;-66
2022/05/13 03:18:36;;;;;;;3.00;2.80;;;25.60;44.60;;;;;;5028449;28;20100;-66
2022/05/13 03:21:03;;;;;;;3.08;2.78;;;25.60;44.60;;;;;;5026305;28;20505;-66
2022/05/13 03:23:30;;;;;;;3.05;2.83;;;25.60;44.60;;;;;;5027281;28;20053;-66
2022/05/13 03:25:57;;;;;;;3.20;2.90;;;25.60;44.60;;;;;;5023030;28;20770;-65
2022/05/13 03:28:25;;;;;;;2.70;2.50;;;25.60;44.60;;;;;;5027359;28;20080;-66
2022/05/13 03:30:52;;;;;;;3.22;2.90;;;25.60;44.60;;;;;;5026274;28;20497;-66
2022/05/13 03:33:20;;;;;;;3.20;2.90;;;25.60;44.60;;;;;;5027878;28;20042;-66
2022/05/13 03:35:47;;;;;;;4.70;3.30;;;25.60;44.60;;;;;;5017707;28;20049;-66
2022/05/13 03:38:15;;;;;;;4.80;2.63;;;25.60;44.60;;;;;;5018988;28;20124;-66
2022/05/13 03:40:42;;;;;;;3.00;2.80;;;25.60;44.60;;;;;;5015077;28;20053;-66
2022/05/13 03:43:09;;;;;;;3.00;2.72;;;25.60;44.50;;;;;;5018428;28;20354;-66
2022/05/13 03:45:36;;;;;;;3.70;3.08;;;25.60;44.50;;;;;;5015599;28;20053;-66
2022/05/13 03:48:05;;;;;;;3.17;2.85;;;25.60;44.50;;;;;;5014128;28;20042;-66
2022/05/13 03:50:34;;;;;;;3.30;3.00;;;25.60;44.50;;;;;;5023735;28;20054;-66
2022/05/13 03:53:02;;;;;;;2.95;2.75;;;25.60;44.50;;;;;;5025640;28;20049;-66
2022/05/13 03:55:30;;;;;;;3.00;2.60;;;25.60;44.50;;;;;;5027304;28;20042;-66
2022/05/13 03:57:57;;;;;;;4.00;3.60;;;25.60;44.40;;;;;;5022992;28;20045;-66
2022/05/13 04:00:25;;;;;;;3.38;3.05;;;25.60;44.40;;;;;;5026563;28;20453;-66
2022/05/13 04:02:53;;;;;;;3.42;3.22;;;25.60;44.40;;;;;;5026704;28;20364;-66
2022/05/13 04:10:54;;;;;;;3.40;3.00;;;25.70;44.40;;;;;;5026774;28;20107;-66
2022/05/13 04:16:09;;;;;;;3.08;2.88;;;25.70;44.30;;;;;;5027014;28;20099;-66
2022/05/13 04:18:39;;;;;;;4.10;3.75;;;25.70;44.20;;;;;;5026320;28;20432;-66
2022/05/13 04:21:14;;;;;;;3.42;3.00;;;25.70;44.20;;;;;;5026640;28;20092;-66
2022/05/13 04:23:43;;;;;;;3.33;3.03;;;25.70;44.10;;;;;;5018186;28;20053;-66
2022/05/13 04:26:14;;;;;;;5.50;2.80;;;25.70;44.10;;;;;;5015694;28;20127;-66
2022/05/13 04:28:44;;;;;;;4.68;3.40;;;25.70;44.10;;;;;;5015750;28;20111;-67
2022/05/13 04:31:13;;;;;;;3.75;3.15;;;25.70;44.00;;;;;;5015451;28;20045;-66
2022/05/13 04:33:41;;;;;;;4.53;3.60;;;25.80;44.00;;;;;;5016252;28;20513;-66
2022/05/13 04:36:09;;;;;;;4.15;3.00;;;25.80;44.00;;;;;;5018540;28;20123;-66
2022/05/13 04:38:37;;;;;;;3.50;3.20;;;25.90;44.00;;;;;;5015002;28;20100;-67
2022/05/13 04:43:53;;;;;;;4.35;3.95;;;25.90;43.90;;;;;;5019108;28;20080;-66
2022/05/13 04:46:20;;;;;;;4.25;3.78;;;25.90;43.80;;;;;;5018239;28;20041;-66
2022/05/13 04:48:48;;;;;;;5.22;3.42;;;25.90;43.70;;;;;;5012043;28;20053;-66
2022/05/13 04:51:17;;;;;;;5.40;3.88;;;26.00;43.80;;;;;;5014011;28;20046;-66
2022/05/13 04:53:50;;;;;;;4.03;3.63;;;26.00;43.70;;;;;;5014891;28;20559;-66
2022/05/13 04:56:19;;;;;;;6.15;3.38;;;26.00;43.60;;;;;;5014989;28;20049;-66
2022/05/13 04:58:47;;;;;;;4.80;4.30;;;26.00;43.60;;;;;;5013665;28;20073;-66
2022/05/13 05:01:15;;;;;;;4.60;4.20;;;26.00;43.60;;;;;;5012221;28;20046;-65
2022/05/13 05:03:44;;;;;;;4.28;3.85;;;26.00;43.60;;;;;;5020694;28;20050;-66
2022/05/13 05:06:14;;;;;;;4.18;3.78;;;26.10;43.60;;;;;;5024131;28;20076;-65
2022/05/13 05:08:41;;;;;;;5.05;3.85;;;26.10;43.50;;;;;;5028943;28;20497;-65
2022/05/13 05:11:10;;;;;;;4.63;4.00;;;26.10;43.60;;;;;;5019701;28;20054;-65
2022/05/13 05:13:42;;;;;;;3.90;3.60;;;26.10;43.60;;;;;;5025376;28;20049;-66
2022/05/13 05:16:09;;;;;;;3.85;3.55;;;26.20;43.70;;;;;;5023439;28;20413;-66
2022/05/13 05:18:38;;;;;;;4.13;3.80;;;26.20;43.60;;;;;;5022010;28;20711;-66
2022/05/13 05:21:07;;;;;;;4.72;4.32;;;26.20;43.60;;;;;;5038516;28;20051;-66
2022/05/13 05:23:38;;;;;;;4.05;3.75;;;26.30;43.60;;;;;;5027857;28;20465;-65
2022/05/13 05:26:06;;;;;;;5.20;3.63;;;26.30;43.70;;;;;;5028070;28;20497;-62
2022/05/13 05:28:37;;;;;;;4.00;3.60;;;26.30;43.60;;;;;;5026816;28;20409;-66
2022/05/13 05:31:06;;;;;;;5.07;4.57;;;26.30;43.70;;;;;;5015519;28;20092;-62
2022/05/13 05:33:34;;;;;;;6.07;5.32;;;26.40;43.80;;;;;;5016095;28;20038;-63
2022/05/13 05:36:01;;;;;;;6.97;5.18;;;26.40;44.30;;;;;;5023633;28;20095;-64
2022/05/13 05:38:29;;;;;;;6.55;5.38;;;26.40;44.20;;;;;;5019213;28;20108;-63
2022/05/13 05:40:58;;;;;;;7.80;6.47;;;26.40;44.30;;;;;;5023471;28;20116;-63
2022/05/13 05:43:27;;;;;;;7.82;6.55;;;26.40;44.10;;;;;;5015504;28;20467;-61
2022/05/13 05:45:56;;;;;;;8.27;7.40;;;26.50;44.30;;;;;;5014974;28;20148;-62
2022/05/13 05:48:23;;;;;;;11.90;7.80;;;26.50;44.70;;;;;;5022003;28;20132;-61
2022/05/13 05:50:52;;;;;;;12.10;7.53;;;26.50;44.80;;;;;;5023881;28;20516;-62
2022/05/13 05:57:13;;;;;;;8.32;6.90;;;26.50;44.70;;;;;;5020285;28;20049;-62
2022/05/13 05:58:58;;;;;;;10.07;7.75;;;26.50;44.80;;;;;;5020784;28;20521;-62
2022/05/13 06:01:25;;;;;;;11.73;7.70;;;26.60;45.30;;;;;;5018708;28;20520;-61
2022/05/13 06:03:53;;;;;;;13.80;8.05;;;26.60;45.40;;;;;;5014752;28;20128;-61
2022/05/13 06:06:20;;;;;;;8.70;7.07;;;26.60;45.80;;;;;;5020635;28;20064;-61
2022/05/13 06:08:49;;;;;;;8.32;7.50;;;26.60;45.60;;;;;;5013445;28;20112;-62
2022/05/13 06:11:17;;;;;;;7.28;6.57;;;26.60;45.80;;;;;;5020299;28;20383;-63
2022/05/13 06:13:44;;;;;;;11.77;7.60;;;26.60;46.20;;;;;;5022838;28;20045;-61
2022/05/13 06:16:11;;;;;;;8.48;6.35;;;26.60;46.40;;;;;;5021329;28;20061;-60
2022/05/13 06:18:38;;;;;;;11.07;7.97;;;26.60;46.40;;;;;;5017243;28;20057;-60
2022/05/13 06:21:06;;;;;;;8.23;6.50;;;26.60;46.30;;;;;;5020090;28;20135;-61
2022/05/13 06:23:35;;;;;;;11.55;6.93;;;26.70;46.20;;;;;;5026628;28;20041;-61
2022/05/13 06:26:03;;;;;;;9.98;6.57;;;26.70;46.50;;;;;;5020816;28;20053;-60
2022/05/13 06:28:30;;;;;;;11.20;6.80;;;26.70;46.40;;;;;;5020444;28;20038;-61
2022/05/13 06:30:58;;;;;;;10.88;5.85;;;26.70;46.60;;;;;;5021703;28;20046;-61
2022/05/13 06:33:26;;;;;;;7.75;5.07;;;26.70;46.60;;;;;;5022973;28;20076;-61
2022/05/13 06:35:53;;;;;;;8.48;5.70;;;26.60;47.20;;;;;;5016742;28;20050;-62
2022/05/13 06:38:22;;;;;;;7.47;5.20;;;26.60;46.80;;;;;;5022148;28;20049;-62
2022/05/13 06:40:51;;;;;;;5.87;5.30;;;26.60;46.90;;;;;;5020159;28;20065;-63
2022/05/13 06:43:19;;;;;;;10.73;5.53;;;26.60;46.80;;;;;;5025394;28;20302;-64
2022/05/13 06:45:46;;;;;;;9.85;4.88;;;26.70;46.90;;;;;;5022213;28;21127;-62
2022/05/13 06:48:14;;;;;;;7.35;4.82;;;26.70;46.80;;;;;;5021213;28;21493;-64
2022/05/13 06:50:46;;;;;;;5.05;4.15;;;26.70;46.60;;;;;;5025261;28;20096;-63
2022/05/13 06:53:16;;;;;;;8.90;4.15;;;26.70;46.40;;;;;;5024909;28;20045;-62
2022/05/13 06:55:44;;;;;;;4.45;3.78;;;26.70;46.40;;;;;;5020261;28;20041;-63
2022/05/13 06:58:12;;;;;;;3.70;3.38;;;26.70;45.90;;;;;;5021875;28;20127;-62
2022/05/13 07:00:42;;;;;;;6.75;3.53;;;26.80;45.90;;;;;;5018818;28;20184;-61
2022/05/13 07:03:18;;;;;;;3.90;3.50;;;26.70;45.80;;;;;;5019571;28;20040;-62
2022/05/13 07:05:46;;;;;;;5.05;3.30;;;26.70;45.50;;;;;;5020445;28;20061;-62
2022/05/13 07:08:14;;;;;;;2.85;2.63;;;26.70;45.30;;;;;;5014628;28;20092;-65
2022/05/13 07:10:42;;;;;;;3.65;3.10;;;26.60;45.00;;;;;;5021599;28;20049;-64
2022/05/13 07:13:12;;;;;;;15.25;2.72;;;26.40;44.90;;;;;;5019049;28;20057;-61
2022/05/13 07:15:40;;;;;;;3.05;2.75;;;26.20;44.60;;;;;;5018912;28;20493;-62
2022/05/13 07:18:07;;;;;;;3.72;2.60;;;26.00;45.10;;;;;;5020708;28;20099;-64
2022/05/13 07:20:35;;;;;;;2.17;2.08;;;25.70;45.50;;;;;;5020222;28;20140;-62
2022/05/13 07:23:02;;;;;;;7.50;2.60;;;25.40;46.00;;;;;;5021608;28;20524;-63
2022/05/13 07:25:33;;;;;;;2.63;2.42;;;25.10;46.60;;;;;;5023733;28;20092;-64
2022/05/13 07:28:01;;;;;;;2.75;2.30;;;24.70;47.30;;;;;;5021497;28;20401;-64
2022/05/13 07:30:28;;;;;;;2.97;2.78;;;24.50;48.00;;;;;;5019488;28;20053;-63
2022/05/13 07:32:56;;;;;;;5.82;2.50;;;24.20;48.90;;;;;;5018755;28;20041;-62
2022/05/13 07:35:23;;;;;;;7.47;2.60;;;24.00;49.60;;;;;;5021420;28;20050;-62
2022/05/13 07:37:51;;;;;;;4.63;2.63;;;23.80;49.90;;;;;;5019640;28;20057;-60
2022/05/13 07:43:06;;;;;;;3.17;2.92;;;23.50;50.70;;;;;;5024309;28;20046;-67
2022/05/13 07:45:35;;;;;;;2.60;2.38;;;23.30;51.30;;;;;;5021061;28;20052;-66
2022/05/13 07:48:03;;;;;;;5.13;2.58;;;23.10;51.90;;;;;;5022539;28;20045;-66
2022/05/13 07:50:31;;;;;;;2.80;2.60;;;23.00;52.50;;;;;;5021509;28;20133;-67
2022/05/13 07:52:58;;;;;;;4.13;2.40;;;22.90;52.70;;;;;;5024120;28;20072;-65
2022/05/13 07:55:26;;;;;;;2.53;2.30;;;22.80;52.90;;;;;;5018809;28;20050;-66
2022/05/13 07:57:53;;;;;;;2.67;2.45;;;22.80;53.10;;;;;;5019830;28;20127;-66
2022/05/13 08:00:25;;;;;;;3.22;2.45;;;22.80;53.30;;;;;;5025670;28;20050;-62
2022/05/13 08:03:01;;;;;;;14.73;2.78;;;22.80;53.40;;;;;;5023300;28;20045;-66
2022/05/13 08:05:40;;;;;;;2.50;2.30;;;22.70;53.40;;;;;;5020821;28;20053;-67
2022/05/13 08:08:11;;;;;;;2.70;2.50;;;22.60;53.60;;;;;;5016653;28;20045;-67
2022/05/13 08:10:42;;;;;;;2.70;2.50;;;22.60;53.90;;;;;;5018175;28;20049;-65
2022/05/13 08:13:11;;;;;;;2.53;2.33;;;22.60;54.00;;;;;;5026189;28;20042;-63
2022/05/13 08:15:39;;;;;;;2.53;2.33;;;22.50;53.90;;;;;;5018669;28;20133;-61
2022/05/13 08:18:06;;;;;;;2.50;2.22;;;22.60;54.00;;;;;;5017311;28;20498;-65
2022/05/13 08:20:42;;;;;;;2.17;2.05;;;22.50;54.10;;;;;;5021008;28;20076;-64
2022/05/13 08:23:09;;;;;;;1.98;1.83;;;22.50;54.10;;;;;;5016351;28;20064;-64
2022/05/13 08:25:37;;;;;;;1.73;1.63;;;22.50;54.20;;;;;;5018110;28;20052;-64
2022/05/13 08:28:06;;;;;;;1.98;1.80;;;22.50;54.80;;;;;;5019446;28;20118;-63
2022/05/13 08:30:34;;;;;;;5.85;2.42;;;22.40;54.80;;;;;;5020327;28;20123;-65
2022/05/13 08:33:02;;;;;;;2.10;2.00;;;22.40;54.80;;;;;;5023771;28;20516;-64
2022/05/13 08:35:29;;;;;;;2.05;1.95;;;22.40;54.80;;;;;;5019597;28;20049;-66
2022/05/13 08:37:57;;;;;;;1.83;1.73;;;22.40;54.80;;;;;;5018890;28;20069;-64
2022/05/13 08:41:02;;;;;;;2.35;2.15;;;22.40;54.80;;;;;;5021551;28;20037;-65
2022/05/13 08:43:36;;;;;;;2.08;1.92;;;22.40;54.80;;;;;;5031968;28;20181;-67
2022/05/13 08:46:14;;;;;;;2.00;1.90;;;22.40;54.80;;;;;;5017392;28;20128;-64
2022/05/13 08:48:57;;;;;;;2.00;1.73;;;22.40;55.20;;;;;;5022477;28;20095;-68
2022/05/13 08:51:46;;;;;;;1.60;1.50;;;22.40;55.10;;;;;;5014778;28;20584;-65
2022/05/13 08:54:16;;;;;;;1.90;1.80;;;22.50;55.30;;;;;;5018261;28;20110;-76
2022/05/13 08:56:50;;;;;;;2.10;2.00;;;22.50;55.10;;;;;;5017218;28;20473;-67
2022/05/13 08:59:41;;;;;;;1.95;1.85;;;22.40;55.20;;;;;;5015799;28;20096;-72
2022/05/13 09:02:21;;;;;;;2.45;1.77;;;22.40;55.30;;;;;;5009239;28;20049;-64
2022/05/13 09:05:16;;;;;;;1.70;1.60;;;22.40;55.40;;;;;;5013684;28;20068;-64
2022/05/13 09:07:44;;;;;;;2.30;2.10;;;22.40;55.50;;;;;;5018289;28;20075;-65
2022/05/13 09:10:12;;;;;;;1.80;1.70;;;22.40;55.40;;;;;;5018839;28;20049;-66
2022/05/13 09:13:00;;;;;;;1.75;1.52;;;22.50;55.30;;;;;;5020557;28;20115;-68
2022/05/13 09:15:44;;;;;;;2.03;1.75;;;22.40;55.10;;;;;;5023387;28;20057;-64
2022/05/13 09:18:34;;;;;;;1.55;1.45;;;22.50;55.10;;;;;;5019681;28;20664;-67
2022/05/13 09:21:16;;;;;;;2.58;1.52;;;22.40;55.00;;;;;;5024407;28;20045;-67
2022/05/13 09:23:43;;;;;;;2.55;1.73;;;22.50;55.00;;;;;;5024972;28;20109;-68
2022/05/13 09:26:20;;;;;;;2.20;2.05;;;22.40;54.90;;;;;;5020047;28;20107;-69
2022/05/13 09:29:11;;;;;;;1.90;1.80;;;22.50;55.10;;;;;;5021842;28;20064;-68
2022/05/13 09:31:45;;;;;;;1.67;1.58;;;22.50;55.10;;;;;;5020465;28;20472;-68
2022/05/13 09:34:29;;;;;;;2.08;1.90;;;22.50;55.10;;;;;;5017843;28;20064;-69
2022/05/13 09:37:17;;;;;;;2.72;1.90;;;22.50;55.20;;;;;;5017774;28;20041;-65
2022/05/13 09:39:47;;;;;;;1.80;1.70;;;22.50;55.20;;;;;;5016389;28;20042;-68
2022/05/13 09:42:26;;;;;;;1.80;1.70;;;22.60;55.30;;;;;;5016641;28;20041;-66
2022/05/13 09:45:16;;;;;;;1.58;1.50;;;22.60;55.30;;;;;;5044087;28;20559;-67
2022/05/13 09:47:57;;;;;;;1.23;1.20;;;22.60;55.30;;;;;;5019726;28;20061;-64
2022/05/13 09:50:31;;;;;;;1.58;1.50;;;22.60;55.10;;;;;;5020673;28;20465;-66
2022/05/13 09:53:16;;;;;;;1.90;1.58;;;22.60;55.10;;;;;;5021371;28;20060;-67
2022/05/13 09:55:44;;;;;;;1.85;1.70;;;22.60;55.00;;;;;;5019953;28;20075;-67
2022/05/13 09:58:20;;;;;;;1.88;1.48;;;22.60;54.90;;;;;;5023614;28;20107;-62
2022/05/13 10:00:53;;;;;;;3.38;1.65;;;22.60;54.90;;;;;;5023682;28;20057;-63
2022/05/13 10:03:23;;;;;;;2.72;1.52;;;22.60;54.80;;;;;;5015131;28;20084;-62
2022/05/13 10:06:02;;;;;;;1.50;1.40;;;22.60;54.90;;;;;;5019803;28;20045;-62
2022/05/13 10:08:39;;;;;;;1.50;1.40;;;22.60;54.90;;;;;;5017414;28;20045;-61
2022/05/13 10:14:02;;;;;;;1.98;1.50;;;22.60;54.80;;;;;;5023007;28;20087;-63
2022/05/13 10:16:48;;;;;;;1.00;1.00;;;22.60;54.80;;;;;;5020154;28;20042;-64
2022/05/13 10:19:32;;;;;;;1.52;1.42;;;22.60;54.60;;;;;;5024211;28;20045;-63
2022/05/13 10:22:21;;;;;;;1.50;1.38;;;22.70;54.60;;;;;;5020610;28;20041;-64
2022/05/13 10:25:09;;;;;;;1.50;1.40;;;22.60;55.30;;;;;;5024754;28;20053;-64
2022/05/13 10:27:44;;;;;;;1.58;1.48;;;22.60;54.80;;;;;;5020360;28;20076;-63
2022/05/13 10:30:34;;;;;;;1.40;1.30;;;22.60;54.70;;;;;;5049111;28;20060;-62
2022/05/13 10:33:19;;;;;;;1.17;1.17;;;22.60;54.60;;;;;;5019454;28;20045;-63
2022/05/13 10:36:01;;;;;;;2.83;1.73;;;22.60;54.80;;;;;;5024733;28;20331;-63
2022/05/13 10:38:53;;;;;;;1.60;1.50;;;22.60;54.90;;;;;;5018004;28;20046;-65
2022/05/13 10:41:46;;;;;;;1.85;1.58;;;22.60;55.00;;;;;;5019976;28;20049;-63
2022/05/13 10:44:47;;;;;;;1.38;1.27;;;22.60;54.90;;;;;;5019862;28;20127;-64
2022/05/13 10:47:40;;;;;;;1.15;1.15;;;22.60;55.10;;;;;;5019509;28;20940;-64
2022/05/13 10:50:25;;;;;;;1.58;1.48;;;22.60;55.00;;;;;;5020681;28;20047;-64
2022/05/13 10:53:08;;;;;;;1.48;1.40;;;22.60;54.90;;;;;;5017930;28;20053;-65
2022/05/13 10:56:06;;;;;;;1.55;1.45;;;22.60;54.90;;;;;;5019169;28;20057;-65
2022/05/13 10:59:04;;;;;;;1.85;1.67;;;22.60;54.90;;;;;;5019126;28;20476;-64
2022/05/13 11:01:58;;;;;;;1.77;1.67;;;22.60;54.90;;;;;;5021474;28;20045;-63
2022/05/13 11:04:46;;;;;;;1.58;1.42;;;22.60;55.00;;;;;;5016564;28;20051;-66
2022/05/13 11:07:36;;;;;;;2.55;1.60;;;22.60;54.90;;;;;;5025575;28;20103;-66
2022/05/13 11:10:43;;;;;;;1.45;1.35;;;22.60;54.90;;;;;;5016663;28;20045;-65
2022/05/13 11:13:41;;;;;;;1.85;1.75;;;22.60;55.10;;;;;;5020698;28;20060;-67
2022/05/13 11:16:47;;;;;;;3.10;1.77;;;22.60;55.60;;;;;;5015437;28;20068;-64
2022/05/13 11:19:36;;;;;;;1.90;1.80;;;22.50;55.50;;;;;;5012861;28;20045;-60
2022/05/13 11:22:18;;;;;;;1.23;1.20;;;22.50;56.00;;;;;;5019076;28;20115;-64
2022/05/13 11:28:47;;;;;;;1.50;1.40;;;22.50;56.00;;;;;;5020727;28;20099;-64
2022/05/13 11:31:51;;;;;;;2.30;1.75;;;22.50;55.80;;;;;;5023377;28;20057;-63
2022/05/13 11:34:45;;;;;;;1.42;1.33;;;22.40;55.80;;;;;;5026639;28;20049;-64
2022/05/13 11:37:15;;;;;;;1.65;1.50;;;22.50;55.60;;;;;;5026257;28;21634;-66
2022/05/13 11:40:20;;;;;;;1.30;1.20;;;22.50;55.50;;;;;;5022429;28;20518;-64
2022/05/13 11:43:21;;;;;;;1.60;1.50;;;22.60;55.70;;;;;;5021099;28;20168;-62
2022/05/13 11:46:25;;;;;;;3.35;2.05;;;22.60;55.50;;;;;;5023708;28;20059;-73
2022/05/13 11:48:58;;;;;;;1.75;1.65;;;22.60;55.40;;;;;;5021451;28;20050;-67
2022/05/13 11:51:33;;;;;;;2.38;2.17;;;22.60;55.60;;;;;;5014743;28;20413;-73
2022/05/13 11:54:27;;;;;;;1.90;1.60;;;22.60;55.50;;;;;;5021675;28;20273;-61
2022/05/13 11:57:26;;;;;;;1.42;1.42;;;22.60;55.60;;;;;;5013842;28;20154;-63
2022/05/13 11:59:56;;;;;;;1.63;1.52;;;22.70;55.70;;;;;;5015350;28;20481;-73
2022/05/13 12:02:34;;;;;;;1.33;1.33;;;22.70;55.50;;;;;;5011816;28;20046;-63
2022/05/13 12:05:25;;;;;;;1.55;1.45;;;22.70;55.30;;;;;;5013541;28;20053;-63
2022/05/13 12:08:25;;;;;;;1.60;1.50;;;22.80;55.00;;;;;;5000198;28;20305;-63
2022/05/13 12:11:22;;;;;;;3.03;1.80;;;22.70;54.80;;;;;;4998044;28;20050;-63
2022/05/13 12:14:10;;;;;;;1.50;1.40;;;22.80;54.50;;;;;;5016168;28;20552;-62
2022/05/13 12:16:55;;;;;;;2.90;2.03;;;22.80;54.60;;;;;;5020055;28;20092;-64
2022/05/13 12:19:48;;;;;;;1.30;1.20;;;22.80;54.40;;;;;;5020373;28;20076;-64
2022/05/13 12:22:48;;;;;;;3.95;1.60;;;22.80;54.30;;;;;;5015399;28;20406;-65
2022/05/13 12:25:43;;;;;;;2.47;1.60;;;22.80;54.10;;;;;;5025549;28;20041;-65
2022/05/13 12:28:24;;;;;;;2.35;1.45;;;22.80;54.20;;;;;;5033580;28;20505;-64
2022/05/13 12:30:52;;;;;;;4.47;2.00;;;22.80;54.40;;;;;;5028245;28;20059;-65
2022/05/13 12:33:45;;;;;;;1.52;1.40;;;22.80;54.60;;;;;;5024380;28;20111;-64
2022/05/13 12:39:21;;;;;;;1.55;1.40;;;22.70;54.90;;;;;;5021078;28;20482;-65
2022/05/13 12:42:09;;;;;;;1.52;1.42;;;22.70;55.00;;;;;;5017647;28;20375;-60
2022/05/13 12:44:56;;;;;;;2.22;1.90;;;22.70;55.10;;;;;;5021110;28;20497;-60
2022/05/13 12:47:29;;;;;;;1.92;1.73;;;22.60;55.10;;;;;;5023303;28;20684;-63
2022/05/13 12:50:00;;;;;;;1.88;1.40;;;22.60;55.10;;;;;;5026642;28;20036;-62
2022/05/13 12:52:37;;;;;;;1.70;1.60;;;22.60;55.30;;;;;;5023256;28;20163;-62
2022/05/13 12:55:20;;;;;;;1.90;1.70;;;22.60;55.40;;;;;;5015221;28;20049;-62
2022/05/13 12:58:04;;;;;;;2.33;2.13;;;22.60;55.30;;;;;;5018992;28;20057;-62
2022/05/13 13:00:42;;;;;;;3.60;2.65;;;22.60;55.50;;;;;;5034904;28;20468;-62
2022/05/13 13:03:15;;;;;;;2.00;1.40;;;22.50;55.40;;;;;;5018955;28;20107;-62
2022/05/13 13:05:50;;;;;;;3.35;1.55;;;22.50;55.80;;;;;;5018010;28;20442;-62
2022/05/13 13:08:26;;;;;;;1.85;1.60;;;22.50;55.30;;;;;;5013332;28;20076;-62
2022/05/13 13:11:03;;;;;;;2.03;1.40;;;22.50;55.20;;;;;;5019281;28;20508;-63
2022/05/13 13:13:44;;;;;;;2.17;1.13;;;22.60;55.20;;;;;;5022487;28;20115;-63
2022/05/13 13:16:19;;;;;;;2.05;1.40;;;22.50;55.20;;;;;;5019545;28;20068;-62
2022/05/13 13:19:03;;;;;;;1.60;1.30;;;22.60;55.20;;;;;;5019511;28;20136;-62
2022/05/13 13:21:30;;;;;;;1.75;1.58;;;22.60;55.10;;;;;;5026328;28;20481;-62
2022/05/13 13:24:00;;;;;;;1.10;0.98;;;22.60;55.10;;;;;;5021909;28;20365;-62
2022/05/13 13:26:28;;;;;;;2.92;1.98;;;22.60;55.10;;;;;;5017157;28;20481;-63
2022/05/13 13:28:55;;;;;;;1.63;1.17;;;22.60;55.20;;;;;;5026434;28;20045;-62
2022/05/13 13:31:25;;;;;;;2.20;1.38;;;22.60;55.10;;;;;;5024301;28;20162;-63
2022/05/13 13:33:55;;;;;;;2.58;1.40;;;22.60;55.10;;;;;;5020328;28;20056;-62
2022/05/13 13:36:32;;;;;;;1.77;1.67;;;22.60;55.00;;;;;;5024475;28;20049;-62
2022/05/13 13:39:19;;;;;;;0.90;0.90;;;22.60;55.10;;;;;;5029275;28;20434;-62
2022/05/13 13:41:56;;;;;;;1.30;1.20;;;22.60;55.00;;;;;;5021335;28;20076;-62
2022/05/13 13:44:23;;;;;;;1.25;1.00;;;22.60;55.10;;;;;;5019382;28;20131;-63
2022/05/13 13:46:51;;;;;;;2.50;1.42;;;22.60;55.10;;;;;;5024973;28;20068;-62
2022/05/13 13:49:27;;;;;;;1.10;1.10;;;22.60;55.10;;;;;;5023161;28;20456;-62